Skip Navigation Links
NOAA logo - Click to go to the NOAA homepage
NOAA's National Weather Service
Alaska Aviation Weather Unit
  NWS logo - Click to go to the NWS homepage
Left Navbar Graphic     08 AKDT = 16 GMT

   
NOAA is celebrating 200 years of science, service, and stewardship. Visit the NOAA 200th celebration Web site to learn more.
USA.gov is the U.S. Government's official Web portal to all Federal, state and local government Web resources and services.
Facebook
NWS on Facebook

Important Change Regarding the AAWU Web Presence

 

Over the last several months, the AAWU has been working to navigate its webpages to a nationally supported server. Security, as well as other needs, have necessitated the change.  In the process, we have made an effort to enhance the functionality of our website, as well as some of our products. As of June 20, 2017, aawu.arh.noaa.gov will be discontinued. The new AAWU web address is weather.gov/aawu. It is now live and will run in-parallel with the old site until it is discontinued. Please send any feedback or questions regarding the new webpages to nws.ar.aawu.webauthors@noaa.gov.  Thank you for your patience during this time of transition.
AAWU Home :: Display TAF Add Bookmark
TAF CYPC 231438Z 2315/2323 30013KT 1/2SM -RA FG OVC002 TEMPO
     2315/2319 5SM BR SCT002 OVC006
    FM231900 30010KT P6SM SCT006 OVC015 TEMPO 2319/2323 3SM -RA BR
     OVC006
    RMK NXT FCST BY 231900Z=

METAR CYPC 231300Z 29011KT 1/4SM -RA FG VV000 00/M00 A2957 RMK FG8 0.8/0.1/TR SLP015= SPECI CYPC 231341Z 29013KT 1/2SM -RA FG OVC001 00/00 A2956 RMK ST8 BLN DSAPRD 2 SLP012= SPECI CYPC 231348Z 29013KT 3/4SM BR OVC001 00/00 A2956 RMK ST8 SLP012= SPECI CYPC 231351Z 29013KT 1SM BR OVC002 00/00 A2956 RMK ST8 VIS E 3/4 SLP012= METAR CYPC 231400Z 29013KT 1 1/4SM -RA BR OVC002 00/00 A2956 RMK ST8 BLN DSAPRD 3 -RA INTMT SLP012= SPECI CYPC 231410Z 30014KT 1 3/4SM -RA BR OVC002 00/00 A2956 RMK ST8 VIS NW 3 SLP012= SPECI CYPC 231417Z 29013KT 2SM -RA BR OVC002 00/00 A2956 RMK ST8 VIS NW 5 SLP011= SPECI CYPC 231437Z 30013KT 2 1/2SM -RA BR BKN002 OVC018 00/00 A2956 RMK ST7SC1 BLN DSAPRD 3 VIS NW 6 SLP011= METAR CYPC 231500Z 30013KT 2SM -RA BR BKN002 OVC018 00/00 A2956 RMK ST7SC1 SLP011= SPECI CYPC 231509Z 30016KT 1 1/2SM -RA BR OVC002 00/00 A2956 RMK ST8 VIS S 3/4 SLP011= SPECI CYPC 231519Z 30015KT 2 1/4SM -RA BR OVC002 00/00 A2956 RMK ST8 VIS NW 6 SLP011= SPECI CYPC 231531Z 30016KT 1SM -RA BR OVC002 00/00 A2956 RMK ST8 VIS S 3/4 SLP011= METAR CYPC 231600Z 30015G21KT 1SM -RA BR OVC001 00/00 A2955 RMK ST8 BLN DSAPRD 2 VIS SE 3/4 SLP010= SPECI CYPC 231609Z 29016KT 1 1/2SM -RA BR OVC001 00/00 A2955 RMK ST8 VIS NW 3 VIS SE 3/4 SLP009= SPECI CYPC 231617Z 30016KT 2SM -RA BR BKN002 OVC018 00/00 A2955 RMK ST7SC1 BLN DSAPRD 3 VIS NW 6 SLP009= SPECI CYPC 231622Z 30017KT 3SM -RA BR BKN002 OVC018 00/00 A2955 RMK ST7SC1 VIS NW 6 SLP009=
 Alaska TAF Map

NOAA's National Weather Service
Alaska Aviation Weather Unit
6930 Sand Lake Road
Anchorage, AK 99502-1845
Disclaimer
Credits
Glossary
Privacy Policy
About Us
Career Opportunities
Contact AAWU Internet Services Site last modified: April, 17th 2012